sensor_id;sensor_type;location;lat;lon;timestamp;temperature;humidity
8886;DHT22;4479;51.162;13.906;2024-02-21T00:16:30;10.30;99.90
8886;DHT22;4479;51.162;13.906;2024-02-21T00:36:36;10.40;99.90
8886;DHT22;4479;51.162;13.906;2024-02-21T00:56:42;10.40;99.90
8886;DHT22;4479;51.162;13.906;2024-02-21T01:16:47;10.40;99.90
8886;DHT22;4479;51.162;13.906;2024-02-21T01:36:53;10.40;99.90
8886;DHT22;4479;51.162;13.906;2024-02-21T01:56:59;10.30;99.90
8886;DHT22;4479;51.162;13.906;2024-02-21T02:07:02;10.20;99.90
8886;DHT22;4479;51.162;13.906;2024-02-21T02:17:07;10.20;99.90
8886;DHT22;4479;51.162;13.906;2024-02-21T02:47:17;10.10;99.90
8886;DHT22;4479;51.162;13.906;2024-02-21T03:07:23;10.10;99.90
8886;DHT22;4479;51.162;13.906;2024-02-21T03:27:29;10.10;99.90
8886;DHT22;4479;51.162;13.906;2024-02-21T03:47:35;10.10;99.90
8886;DHT22;4479;51.162;13.906;2024-02-21T04:07:41;10.20;99.90
8886;DHT22;4479;51.162;13.906;2024-02-21T04:27:46;10.20;99.90
8886;DHT22;4479;51.162;13.906;2024-02-21T04:37:49;10.30;99.90
8886;DHT22;4479;51.162;13.906;2024-02-21T04:47:52;10.20;99.90
8886;DHT22;4479;51.162;13.906;2024-02-21T05:07:58;10.20;99.90
8886;DHT22;4479;51.162;13.906;2024-02-21T05:28:04;10.20;99.90
8886;DHT22;4479;51.162;13.906;2024-02-21T05:48:13;10.30;99.90
8886;DHT22;4479;51.162;13.906;2024-02-21T06:08:18;10.40;99.90
8886;DHT22;4479;51.162;13.906;2024-02-21T06:28:24;10.40;99.90
8886;DHT22;4479;51.162;13.906;2024-02-21T07:08:36;10.60;99.90
8886;DHT22;4479;51.162;13.906;2024-02-21T07:28:42;10.80;99.90
8886;DHT22;4479;51.162;13.906;2024-02-21T07:48:49;11.00;99.90
8886;DHT22;4479;51.162;13.906;2024-02-21T08:08:54;11.40;99.90
8886;DHT22;4479;51.162;13.906;2024-02-21T08:29:01;11.50;99.90
8886;DHT22;4479;51.162;13.906;2024-02-21T08:49:07;11.80;99.90
8886;DHT22;4479;51.162;13.906;2024-02-21T09:09:16;11.70;99.90
8886;DHT22;4479;51.162;13.906;2024-02-21T09:29:24;11.80;99.90
8886;DHT22;4479;51.162;13.906;2024-02-21T09:49:32;11.80;99.90
8886;DHT22;4479;51.162;13.906;2024-02-21T10:09:38;11.90;99.90
8886;DHT22;4479;51.162;13.906;2024-02-21T10:29:49;12.00;99.90
8886;DHT22;4479;51.162;13.906;2024-02-21T10:39:53;12.20;99.90
8886;DHT22;4479;51.162;13.906;2024-02-21T10:50:03;12.30;99.90
8886;DHT22;4479;51.162;13.906;2024-02-21T16:32:23;11.90;99.90
8886;DHT22;4479;51.162;13.906;2024-02-21T16:52:30;11.40;99.90
8886;DHT22;4479;51.162;13.906;2024-02-21T17:12:36;11.00;99.90
8886;DHT22;4479;51.162;13.906;2024-02-21T17:32:42;10.60;99.90
8886;DHT22;4479;51.162;13.906;2024-02-21T17:52:47;10.40;99.90
8886;DHT22;4479;51.162;13.906;2024-02-21T18:12:53;9.80;99.90
8886;DHT22;4479;51.162;13.906;2024-02-21T18:33:00;9.40;99.90
8886;DHT22;4479;51.162;13.906;2024-02-21T18:53:06;9.20;99.90
8886;DHT22;4479;51.162;13.906;2024-02-21T19:13:13;9.30;99.90
8886;DHT22;4479;51.162;13.906;2024-02-21T19:33:18;11.80;99.90
8886;DHT22;4479;51.162;13.906;2024-02-21T19:53:24;9.80;99.90
8886;DHT22;4479;51.162;13.906;2024-02-21T20:33:39;10.10;99.90
8886;DHT22;4479;51.162;13.906;2024-02-21T20:53:46;10.30;99.90
8886;DHT22;4479;51.162;13.906;2024-02-21T21:13:51;10.50;99.90
8886;DHT22;4479;51.162;13.906;2024-02-21T21:33:57;10.60;99.90
8886;DHT22;4479;51.162;13.906;2024-02-21T21:54:03;10.70;99.90
8886;DHT22;4479;51.162;13.906;2024-02-21T22:14:09;10.80;99.90
8886;DHT22;4479;51.162;13.906;2024-02-21T22:34:15;10.80;99.90
8886;DHT22;4479;51.162;13.906;2024-02-21T22:54:20;10.80;99.90
8886;DHT22;4479;51.162;13.906;2024-02-21T23:14:28;10.90;99.90
8886;DHT22;4479;51.162;13.906;2024-02-21T23:34:33;11.00;99.90
8886;DHT22;4479;51.162;13.906;2024-02-21T23:54:39;11.10;99.90
